Terminal Aerodrome Forecast
Issued by NWS

Home | Current Version | Previous Version | Text Only | Print | Product List | Glossary On
Versions: 1 2 3 4 5 6 7 8 9 10 11 12 13 14 15 16 17
000
FTUS46 KLOX 240500
TAFPMD
TAF
KPMD 240532Z 2406/2506 28010KT P6SM SCT200
     FM241000 VRB03KT P6SM SCT200
     FM242000 27012KT P6SM SCT200
     FM242300 27012G22KT P6SM SKC
     FM250300 27012KT P6SM SKC=

USA.gov is the U.S. government's official web portal to all federal, state and local government web resources and services.